Station: Hamilton Island

  Atmospheric Gas Attenuation - ITU Rec 676-11   --------------- db/100km ---------------
Date Time Temp RH % AH g/m3 Dew Point Wind Direction Speed kph Gust kph Barometer mB Rainfall Since 9am 24GHz 47GHz 76GHz 122GHz 134GHz 241GHz
27 01:40 25.2 92 21.42 23.8 22 28 1006.3 56.4 46.1 44.4 88.3 233.8 261.4 908.0
27 01:30 25.1 94 21.76 24.1 28 33 1006.3 56.4 46.9 45.1 90.1 238.6 267.3 928.6
27 01:20 24.9 93 21.29 23.7 28 30 1006.4 56.4 45.9 44.3 88.0 233.0 260.4 904.4
27 01:10 24.9 93 21.29 23.7 32 33 1006.5 56.4 45.9 44.3 88.0 233.0 260.4 904.5
27 01:00 24.7 93 21.05 23.5 30 35 1006.6 56.4 45.4 43.9 87.1 230.5 257.2 893.3
27 00:50 24.9 95 21.75 24 30 33 1006.7 56.4 46.9 45.2 90.3 239.2 268.0 930.8
27 00:40 24.7 95 21.5 23.8 33 35 1006.8 56.4 46.4 44.8 89.3 236.5 264.6 919.0
27 00:30 24.8 96 21.85 24.1 35 43 1006.9 56.4 47.1 45.5 91.0 240.9 270.0 937.9
27 00:20 24.8 96 21.85 24.1 35 39 1007 56.4 47.1 45.5 91.0 240.9 270.0 938.0
27 00:10 24.7 97 21.95 24.2 37 41 1007.2 56.4 47.3 45.7 91.6 242.7 272.1 945.1
27 00:00 24.8 95 21.62 23.9 39 44 1007.3 56.4 46.6 45.0 89.8 237.9 266.3 925.0
26 23:50 24.9 96 21.97 24.2 35 41 1007.5 56.4 47.4 45.7 91.5 242.3 271.7 943.9
26 23:40 24.7 96 21.73 24 39 44 1007.8 56.4 46.9 45.3 90.6 239.8 268.6 932.8
26 23:30 24.6 97 21.83 24.1 41 50 1007.9 56.4 47.1 45.6 91.2 241.5 270.6 939.9
26 23:20 24.5 97 21.71 24 39 43 1008 56.4 46.8 45.4 90.7 240.2 269.0 934.3
26 23:10 24.5 98 21.93 24.2 41 44 1008.1 56.4 47.3 45.9 91.8 243.2 272.7 947.1
26 23:00 24.5 97 21.71 24 37 44 1008.3 56.4 46.8 45.4 90.7 240.2 269.1 934.5
26 22:50 24.3 97 21.46 23.8 33 39 1008.4 56.4 46.3 45.0 89.7 237.5 265.7 922.7
26 22:40 24.2 98 21.56 23.9 39 43 1008.5 56.4 46.6 45.3 90.4 239.2 267.7 929.7
26 22:30 24.2 99 21.78 24 35 46 1008.7 56.4 47.0 45.7 91.5 242.2 271.4 942.6
26 22:20 24.2 100 22 24.2 41 44 1008.7 56.4 47.5 46.2 92.6 245.3 275.1 955.4
26 22:10 24.2 100 22 24.2 32 35 1008.8 56.4 47.5 46.2 92.6 245.3 275.1 955.4
26 22:00 24.2 100 22 24.2 33 39 1008.9 56.2 47.5 46.2 92.6 245.3 275.1 955.5
26 21:50 23.9 100 21.63 23.9 35 39 1008.9 56 46.7 45.6 91.1 241.2 270.0 937.8
26 21:40 23.4 100 21.03 23.4 39 41 1008.9 55.6 45.5 44.7 88.6 234.7 261.9 909.3
26 21:30 23.7 100 21.39 23.7 35 39 1008.8 54.8 46.3 45.2 90.1 238.6 266.7 926.4
26 21:20 23.5 100 21.15 23.5 33 39 1008.9 54.4 45.8 44.9 89.1 236.0 263.5 915.0
26 21:10 23.7 100 21.39 23.7 39 43 1008.8 53.6 46.3 45.2 90.1 238.6 266.7 926.4
26 21:00 23.8 100 21.51 23.8 39 46 1008.9 52.6 46.5 45.4 90.6 239.9 268.4 932.1
26 20:50 23.7 100 21.39 23.7 39 43 1008.7 51.6 46.3 45.2 90.1 238.6 266.7 926.3
26 20:40 24.3 100 22.13 24.3 41 43 1008.7 51.2 47.8 46.4 93.2 246.7 276.9 961.7
26 20:30 24.2 100 22 24.2 39 43 1008.6 50.4 47.5 46.2 92.6 245.2 275.1 955.3
26 20:20 24.2 100 22 24.2 39 43 1008.6 50 47.5 46.2 92.6 245.2 275.1 955.3
26 20:10 24.2 100 22 24.2 33 35 1008.5 49.8 47.5 46.2 92.6 245.2 275.0 955.3
26 20:00 24.2 100 22 24.2 37 44 1008.3 49.2 47.5 46.2 92.6 245.2 275.0 955.1
26 19:50 24.1 100 21.88 24.1 37 39 1008.1 49 47.3 46.0 92.1 243.8 273.3 949.3
26 19:40 24.1 100 21.88 24.1 32 35 1008.1 48.8 47.3 46.0 92.1 243.8 273.3 949.3
26 19:30 23.8 100 21.51 23.8 24 30 1008.1 48.6 46.5 45.4 90.6 239.8 268.3 931.6
26 19:20 23.8 100 21.51 23.8 24 26 1008.1 48.4 46.5 45.4 90.6 239.8 268.3 931.6
26 19:10 23.5 100 21.15 23.5 30 32 1007.9 47.8 45.8 44.8 89.1 235.8 263.3 914.4
26 19:00 23.9 100 21.63 23.9 22 28 1007.9 47.8 46.7 45.6 91.0 241.0 269.9 937.2
26 18:50 23.4 100 21.03 23.4 20 22 1007.8 47.4 45.5 44.6 88.6 234.5 261.7 908.7
26 18:40 23.7 100 21.39 23.7 24 26 1007.7 47.4 46.3 45.2 90.0 238.4 266.6 925.7
26 18:30 23.6 100 21.27 23.6 19 24 1007.6 46.8 46.0 45.0 89.5 237.1 264.9 919.9
26 18:20 23.5 100 21.15 23.5 17 19 1007.6 46.4 45.8 44.8 89.0 235.8 263.3 914.3
26 18:10 23.2 100 20.79 23.2 19 20 1007.5 46.2 45.0 44.2 87.6 231.8 258.3 897.1
26 18:00 23.4 100 21.03 23.4 28 32 1007.3 46 45.5 44.6 88.5 234.4 261.6 908.4
26 17:50 23.3 100 20.91 23.3 26 30 1007.1 46 45.3 44.4 88.0 233.0 259.9 902.6
26 17:40 23.4 100 21.03 23.4 26 30 1007.1 45.6 45.5 44.6 88.5 234.4 261.5 908.3
26 17:30 23.1 100 20.67 23.1 20 28 1007 45.6 44.8 44.0 87.0 230.4 256.6 891.1
26 17:20 23.4 100 21.03 23.4 22 26 1006.9 45 45.5 44.6 88.5 234.3 261.5 908.1
26 17:10 23.7 100 21.39 23.7 15 17 1006.7 44.4 46.3 45.1 90.0 238.2 266.4 925.1
26 17:00 23.8 100 21.51 23.8 13 15 1006.7 44.2 46.5 45.3 90.5 239.5 268.0 930.8
26 16:50 23.8 100 21.51 23.8 9 9 1006.5 43.8 46.5 45.3 90.4 239.5 268.0 930.7
26 16:40 23.6 100 21.27 23.6 9 11 1006.4 43.6 46.0 44.9 89.5 236.8 264.7 919.2
26 16:30 23.6 100 21.27 23.6 13 17 1006.4 43 46.0 44.9 89.5 236.8 264.7 919.2
26 16:20 23.6 100 21.27 23.6 13 13 1006.5 42 46.0 44.9 89.5 236.9 264.7 919.3
26 16:10 23.8 100 21.51 23.8 13 15 1006.5 41.2 46.5 45.3 90.4 239.5 268.0 930.7
26 16:00 23.7 100 21.39 23.7 15 19 1006.5 39.6 46.3 45.1 90.0 238.2 266.3 925.0
26 15:50 23.5 100 21.15 23.5 17 19 1006.6 38.4 45.8 44.7 89.0 235.6 263.1 913.7
26 15:40 23.6 100 21.27 23.6 26 28 1006.6 33.4 46.0 44.9 89.5 236.9 264.7 919.3
26 15:30 23.9 100 21.63 23.9 20 26 1006.4 26.2 46.8 45.5 90.9 240.8 269.6 936.3
26 15:20 24.1 100 21.88 24.1 20 22 1006.3 23.6 47.3 45.9 92.0 243.5 273.0 948.2
26 15:10 24 100 21.76 24 24 28 1006.2 23.2 47.0 45.7 91.5 242.2 271.4 942.4
26 15:00 23.7 100 21.39 23.7 28 33 1006.2 22.4 46.3 45.1 89.9 238.1 266.3 924.8
26 14:50 24.1 100 21.88 24.1 26 28 1006.4 22 47.3 45.9 92.0 243.5 273.0 948.3
26 14:40 23.9 100 21.63 23.9 30 32 1006.4 21.2 46.8 45.5 90.9 240.8 269.6 936.3
26 14:30 24 100 21.76 24 28 32 1006.5 20 47.0 45.7 91.5 242.2 271.4 942.6
26 14:20 24.2 100 22 24.2 28 32 1006.5 19.2 47.5 46.1 92.5 244.9 274.7 954.0
26 14:10 24.1 100 21.88 24.1 28 32 1006.5 18.4 47.3 45.9 92.0 243.5 273.1 948.3
26 14:00 23.7 100 21.39 23.7 30 43 1006.5 17.2 46.3 45.1 90.0 238.2 266.3 925.0
26 13:50 24.7 100 22.63 24.7 24 28 1006.6 16 48.8 47.1 95.1 251.8 283.4 984.3
26 13:40 24.2 100 22 24.2 24 28 1006.7 15 47.5 46.1 92.5 244.9 274.7 954.1
26 13:30 23.7 100 21.39 23.7 33 46 1006.8 14.2 46.3 45.1 90.0 238.2 266.4 925.2
26 13:20 23.4 100 21.03 23.4 43 48 1006.6 10.6 45.5 44.6 88.5 234.3 261.5 908.0
26 13:10 23.9 97 20.98 23.4 57 61 1006.2 7.8 45.4 44.2 87.6 232.0 258.8 898.8
26 13:00 24.9 96 21.97 24.2 48 65 1006.3 4.2 47.4 45.6 91.4 242.1 271.5 943.2
26 12:50 25.5 96 22.73 24.8 30 33 1006.6 3.4 48.9 46.9 94.6 250.5 282.0 979.6
26 12:40 25.6 93 22.14 24.4 30 35 1006.7 3 47.6 45.6 91.5 242.2 271.8 944.3
26 12:30 26.6 87 21.9 24.3 37 44 1006.7 2.4 47.0 44.6 89.0 235.8 264.3 918.2
26 12:20 26.9 83 21.24 23.8 39 43 1006.6 2.2 45.6 43.1 85.4 226.2 252.6 877.9
26 12:10 26.4 84 20.91 23.5 37 41 1006.8 2.2 44.9 42.7 84.4 223.5 249.1 865.7
26 12:00 26.7 87 22.02 24.4 37 46 1006.9 2 47.2 44.8 89.5 237.1 265.9 923.8
26 11:50 26.5 84 21.03 23.6 33 35 1007 1.6 45.2 42.9 84.9 224.8 250.7 871.2
26 11:40 27 85 21.88 24.3 39 43 1007 1.4 46.9 44.3 88.5 234.3 262.6 912.4
26 11:30 26.1 91 22.28 24.5 9 32 1007.3 1.4 47.9 45.6 91.6 242.5 272.4 946.3
26 11:20 26.3 94 23.27 25.3 7 9 1007.3 1.4 50.0 47.5 96.4 255.3 288.0 1000.7
26 11:10 26.5 92 23.03 25.1 13 19 1007.4 1.2 49.4 46.9 94.9 251.3 283.3 984.2
26 11:00 26.5 91 22.78 24.9 15 20 1007.4 1 48.9 46.4 93.6 248.0 279.1 969.8
26 10:50 26.1 92 22.52 24.7 17 19 1007.5 1 48.4 46.1 92.8 245.8 276.4 960.2
26 10:40 25.9 93 22.52 24.7 20 24 1007.6 0.6 48.4 46.2 93.1 246.5 277.1 962.8
26 10:30 25.7 91 21.79 24.1 39 52 1007.6 0.6 46.9 44.9 89.6 237.3 265.9 923.6
26 10:20 25.6 91 21.66 24 46 54 1007.5 0.6 46.6 44.7 89.1 235.9 264.1 917.5
26 10:10 27.1 84 21.74 24.2 41 44 1007.6 0 46.6 44.0 87.7 232.3 260.1 903.7
26 10:00 27.2 83 21.6 24.1 41 50 1007.5 0 46.3 43.7 86.9 230.1 257.5 894.7
26 09:50 27 85 21.88 24.3 37 43 1007.6 0 46.9 44.4 88.5 234.4 262.7 912.7
26 09:40 27.1 83 21.48 24 41 44 1007.6 0 46.0 43.5 86.5 228.9 255.9 889.3
26 09:30 27.6 81 21.55 24 33 41 1007.5 0 46.1 43.4 86.2 228.3 255.3 887.2
26 09:20 27.8 79 21.25 23.8 35 41 1007.6 0 45.5 42.7 84.5 223.8 249.9 868.5
26 09:10 27.9 79 21.37 23.9 35 39 1007.6 0 45.7 42.9 85.0 225.1 251.5 873.9

Last Refresh: 27-Feb-2021 02:18:16

Most of the information presented on this site is sourced from the Bureau of Meteorology.  Copyright in all material sourced from the Bureau of Meteorology resides with the Commonwealth of Australia.